Gulf Islands National Seasho, Mississippi
Current Conditions -  °F | °C
As of 7:18 PM on Saturday 22 Nov 2014 (Local Time) from KBIX Reporting Station
Overcast Overcast  
Wind Chill: 63°   Ceiling: 700
Heat Index: 63°   Visibility: 10mi
Dew Point: 61°   Wind: 13mph
Humidity: 94%   Direction: 100°E
Pressure: 30.05"   Gusts: NA
Location:  30.418°N, 88.7558°W
Report Text: KBIX 230118Z AUTO 10011KT 10SM OVC007 17/16 A3005 RMK AO2
Loading
Personal Weather Stations






























Interactive Weather Map New forecast layout! Learn more

10-Day Weather Forecast

Advertisements
Track Severe Weather on mobile